Time;durP1;ratioP1;P1;durP2;ratioP2;P2;SDS_P1;SDS_P2;PMS_P1;PMS_P2;Temp;Humidity;BMP_temperature;BMP_pressure;BME280_temperature;BME280_humidity;BME280_pressure;Samples;Min_cycle;Max_cycle;Signal;HPM_P1;HPM_P2
2023/04/04 00:00:02;;;;;;;4.17;1.80;;;;;;;2.83;55.19;100477.41;346324;28;1182;-73
2023/04/04 00:00:14;;;;;;;2.65;1.67;;;;;;;2.85;54.86;100473.13;345256;28;1599;-73
2023/04/04 00:00:27;;;;;;;3.78;1.80;;;;;;;2.83;55.56;100474.81;345845;28;1994;-73
2023/04/04 00:00:39;;;;;;;3.53;1.88;;;;;;;2.85;55.28;100473.13;343585;28;1149;-73
2023/04/04 00:00:51;;;;;;;2.72;1.80;;;;;;;2.88;55.14;100473.16;345429;28;1215;-73
2023/04/04 00:01:04;;;;;;;4.07;1.95;;;;;;;2.87;55.20;100471.44;345059;28;1099;-73
2023/04/04 00:01:16;;;;;;;4.47;1.85;;;;;;;2.90;54.80;100482.63;344955;28;1083;-74
2023/04/04 00:01:28;;;;;;;3.53;1.70;;;;;;;2.91;54.54;100474.06;344717;28;1118;-73
2023/04/04 00:01:40;;;;;;;2.92;1.60;;;;;;;2.91;54.96;100473.22;344927;28;1027;-73
2023/04/04 00:01:52;;;;;;;3.22;1.60;;;;;;;2.90;54.21;100471.50;344292;28;1328;-73
2023/04/04 00:02:05;;;;;;;4.15;1.80;;;;;;;2.92;54.94;100474.94;344497;28;1237;-73
2023/04/04 00:02:17;;;;;;;4.13;1.88;;;;;;;2.94;54.59;100470.69;344068;28;1068;-73
2023/04/04 00:02:29;;;;;;;4.97;1.85;;;;;;;2.94;54.91;100468.13;344718;28;1350;-73
2023/04/04 00:02:41;;;;;;;3.90;1.80;;;;;;;2.96;54.57;100471.56;345336;28;1240;-73
2023/04/04 00:02:53;;;;;;;3.53;1.75;;;;;;;2.94;54.87;100473.25;347410;28;1585;-73
2023/04/04 00:03:06;;;;;;;3.30;1.70;;;;;;;2.91;55.46;100474.06;347492;28;1179;-73
2023/04/04 00:03:18;;;;;;;3.78;1.80;;;;;;;2.92;55.62;100477.50;345637;28;2215;-73
2023/04/04 00:03:30;;;;;;;3.53;1.85;;;;;;;2.89;55.13;100469.75;344926;28;1565;-73
2023/04/04 00:03:42;;;;;;;3.42;1.98;;;;;;;2.93;55.31;100466.38;345360;28;1187;-73
2023/04/04 00:03:55;;;;;;;3.65;1.90;;;;;;;2.93;55.23;100472.38;344870;28;1068;-73
2023/04/04 00:04:07;;;;;;;5.40;1.80;;;;;;;2.94;55.44;100474.13;344624;28;1117;-73
2023/04/04 00:04:19;;;;;;;4.35;1.65;;;;;;;2.92;55.29;100469.81;344698;28;1075;-73
2023/04/04 00:04:31;;;;;;;3.35;1.50;;;;;;;2.85;55.06;100473.13;344905;28;1080;-73
2023/04/04 00:04:43;;;;;;;2.50;1.63;;;;;;;2.87;55.41;100467.16;344660;28;1047;-73
2023/04/04 00:04:55;;;;;;;3.15;1.80;;;;;;;2.63;54.72;100472.88;345073;28;1018;-73
2023/04/04 00:05:08;;;;;;;3.10;1.60;;;;;;;2.62;54.45;100470.25;346141;28;1121;-73
2023/04/04 00:05:20;;;;;;;3.30;1.70;;;;;;;2.55;55.33;100469.34;345949;28;1135;-73
2023/04/04 00:05:34;;;;;;;3.28;1.75;;;;;;;2.54;54.98;100473.63;344731;28;1195;-73
2023/04/04 00:05:46;;;;;;;4.40;1.85;;;;;;;2.55;55.04;100469.34;343681;28;1825;-73
2023/04/04 00:05:58;;;;;;;4.57;1.93;;;;;;;2.54;55.00;100467.63;343034;28;1792;-73
2023/04/04 00:06:10;;;;;;;3.92;1.90;;;;;;;2.58;55.32;100469.38;343228;28;1060;-73
2023/04/04 00:06:22;;;;;;;3.47;1.58;;;;;;;2.61;55.17;100469.41;343113;28;1161;-73
2023/04/04 00:06:35;;;;;;;4.10;1.60;;;;;;;2.55;54.90;100470.19;343118;28;1149;-73
2023/04/04 00:06:47;;;;;;;3.42;1.67;;;;;;;2.55;55.25;100471.91;344477;28;1075;-73
2023/04/04 00:06:59;;;;;;;3.38;1.77;;;;;;;2.51;55.84;100465.00;343142;28;1331;-73
2023/04/04 00:07:11;;;;;;;3.42;1.80;;;;;;;2.60;55.93;100470.28;343281;28;1312;-73
2023/04/04 00:07:23;;;;;;;2.72;1.67;;;;;;;2.64;55.48;100474.59;342631;28;1028;-73
2023/04/04 00:07:35;;;;;;;2.38;1.60;;;;;;;2.67;55.31;100464.34;343666;28;1054;-73
2023/04/04 00:07:47;;;;;;;2.58;1.60;;;;;;;2.68;55.25;100466.09;345241;28;1336;-73
2023/04/04 00:07:59;;;;;;;2.25;1.52;;;;;;;2.68;55.47;100471.22;344953;28;1652;-73
2023/04/04 00:08:12;;;;;;;2.88;1.80;;;;;;;2.70;55.38;100469.53;344789;28;1164;-73
2023/04/04 00:08:24;;;;;;;3.63;1.90;;;;;;;2.69;55.76;100467.81;344575;28;1147;-73
2023/04/04 00:08:36;;;;;;;3.95;1.83;;;;;;;2.69;55.82;100467.81;344657;28;1098;-73
2023/04/04 00:08:48;;;;;;;5.82;2.00;;;;;;;2.71;55.72;100463.56;343820;28;1324;-73
2023/04/04 00:09:00;;;;;;;5.28;1.83;;;;;;;2.73;55.27;100471.28;343985;28;1801;-73
2023/04/04 00:09:12;;;;;;;4.78;1.67;;;;;;;2.74;55.87;100466.16;343453;28;1010;-73
2023/04/04 00:09:25;;;;;;;3.42;1.63;;;;;;;2.73;55.91;100469.56;343779;28;1969;-74
2023/04/04 00:09:37;;;;;;;2.30;1.52;;;;;;;2.76;55.60;100469.63;345766;28;1886;-73
2023/04/04 00:09:49;;;;;;;1.95;1.45;;;;;;;2.78;55.57;100467.94;346073;28;1634;-73
2023/04/04 00:10:01;;;;;;;1.85;1.40;;;;;;;2.80;55.42;100466.25;346177;28;1100;-73
2023/04/04 00:10:14;;;;;;;2.08;1.45;;;;;;;2.82;55.68;100467.94;346098;28;1202;-73
2023/04/04 00:10:26;;;;;;;2.55;1.42;;;;;;;2.83;55.47;100467.97;346104;28;1098;-73
2023/04/04 00:10:38;;;;;;;3.97;1.50;;;;;;;2.84;55.35;100471.41;346540;28;1221;-73
2023/04/04 00:10:57;;;;;;;4.15;1.60;;;;;;;2.78;55.39;100462.78;346259;28;1282;-73
2023/04/04 00:11:09;;;;;;;3.47;1.60;;;;;;;2.74;55.00;100470.44;346283;28;1167;-73
2023/04/04 00:11:25;;;;;;;3.63;1.70;;;;;;;2.68;55.41;100475.50;345709;28;1809;-73
2023/04/04 00:11:37;;;;;;;3.20;1.70;;;;;;;2.68;55.09;100466.09;345528;28;1582;-73
2023/04/04 00:11:49;;;;;;;2.88;1.50;;;;;;;2.57;55.36;100467.66;347050;28;1389;-73
2023/04/04 00:12:01;;;;;;;2.35;1.55;;;;;;;2.52;55.34;100469.31;345522;28;1672;-73
2023/04/04 00:12:13;;;;;;;2.25;1.55;;;;;;;2.45;55.50;100467.50;346361;28;1128;-73
2023/04/04 00:12:25;;;;;;;3.78;1.70;;;;;;;2.48;55.74;100470.13;345290;28;1864;-73
2023/04/04 00:12:41;;;;;;;4.25;1.80;;;;;;;2.47;55.89;100465.81;345651;28;1723;-73
2023/04/04 00:12:53;;;;;;;2.37;1.63;;;;;;;2.42;55.68;100467.47;344502;28;1819;-73
2023/04/04 00:13:06;;;;;;;2.28;1.67;;;;;;;2.42;55.47;100467.47;345775;28;1724;-73
2023/04/04 00:13:18;;;;;;;2.47;1.60;;;;;;;2.42;56.33;100463.19;346100;28;1193;-73
2023/04/04 00:13:32;;;;;;;2.90;1.67;;;;;;;2.41;55.51;100464.00;345667;28;1870;-73
2023/04/04 00:13:44;;;;;;;3.70;1.83;;;;;;;2.34;55.55;100465.66;346661;28;1941;-73
2023/04/04 00:13:56;;;;;;;3.60;1.80;;;;;;;2.34;56.06;100470.78;345714;28;1690;-73
2023/04/04 00:14:08;;;;;;;4.38;1.80;;;;;;;2.28;55.63;100469.84;346376;28;1651;-73
2023/04/04 00:14:20;;;;;;;4.22;1.70;;;;;;;2.32;55.80;100467.31;347143;28;1215;-73
2023/04/04 00:14:35;;;;;;;3.97;1.70;;;;;;;2.36;55.70;100469.09;346320;28;1724;-74
2023/04/04 00:14:47;;;;;;;4.88;1.80;;;;;;;2.38;56.19;100469.13;345006;28;1603;-73
2023/04/04 00:14:59;;;;;;;4.50;1.70;;;;;;;2.42;56.24;100462.34;345995;28;1597;-73
2023/04/04 00:15:11;;;;;;;3.92;1.80;;;;;;;2.44;56.10;100465.78;347265;28;1236;-73
2023/04/04 00:15:23;;;;;;;2.95;1.70;;;;;;;2.44;56.21;100461.50;347478;28;1076;-73
2023/04/04 00:15:35;;;;;;;3.13;1.70;;;;;;;2.48;56.29;100467.56;346003;28;1653;-73
2023/04/04 00:15:48;;;;;;;4.00;1.73;;;;;;;2.49;56.12;100466.69;348156;28;1500;-73
2023/04/04 00:16:00;;;;;;;5.47;1.80;;;;;;;2.51;56.28;100463.28;344592;28;1172;-73
2023/04/04 00:16:16;;;;;;;5.55;1.75;;;;;;;2.47;55.92;100458.09;345079;28;1046;-73
2023/04/04 00:16:27;;;;;;;4.88;1.83;;;;;;;2.48;56.29;100467.56;344796;28;1079;-73
2023/04/04 00:16:40;;;;;;;4.05;1.77;;;;;;;2.45;56.45;100464.94;344607;28;1105;-73
2023/04/04 00:16:52;;;;;;;3.03;1.63;;;;;;;2.46;56.59;100461.53;344477;28;1211;-73
2023/04/04 00:17:04;;;;;;;2.78;1.60;;;;;;;2.46;55.86;100470.09;344779;28;1075;-73
2023/04/04 00:17:16;;;;;;;3.75;1.83;;;;;;;2.50;56.03;100461.59;343971;28;767;-73
2023/04/04 00:17:29;;;;;;;3.90;1.77;;;;;;;2.53;55.56;100468.44;343696;28;1096;-73
2023/04/04 00:17:41;;;;;;;3.15;1.60;;;;;;;2.54;55.94;100463.34;344793;28;1038;-73
2023/04/04 00:17:53;;;;;;;4.32;1.63;;;;;;;2.55;55.67;100464.19;342717;28;2151;-73
2023/04/04 00:18:05;;;;;;;3.90;1.67;;;;;;;2.58;55.63;100469.38;344070;28;1815;-73
2023/04/04 00:18:17;;;;;;;3.25;1.60;;;;;;;2.59;56.13;100465.97;344748;28;1257;-73
2023/04/04 00:18:30;;;;;;;2.97;1.58;;;;;;;2.57;56.22;100462.53;344859;28;1093;-73
2023/04/04 00:18:44;;;;;;;3.05;1.65;;;;;;;2.56;55.73;100460.81;344396;28;1047;-73
2023/04/04 00:18:56;;;;;;;2.50;1.70;;;;;;;2.52;56.15;100464.19;344229;28;1983;-73
2023/04/04 00:19:13;;;;;;;2.65;1.60;;;;;;;2.49;56.00;100466.69;345631;28;1543;-73
2023/04/04 00:19:24;;;;;;;4.53;1.70;;;;;;;2.55;56.14;100464.19;346182;28;1031;-74
2023/04/04 00:19:36;;;;;;;6.78;1.70;;;;;;;2.48;56.05;100462.41;345874;28;1367;-73
2023/04/04 00:19:48;;;;;;;7.25;1.80;;;;;;;2.43;55.60;100458.91;345543;28;1239;-73
2023/04/04 00:20:00;;;;;;;4.25;1.60;;;;;;;2.42;55.93;100460.63;345593;28;1582;-73
2023/04/04 00:20:13;;;;;;;3.45;1.70;;;;;;;2.40;56.30;100460.59;346306;28;1105;-73
2023/04/04 00:20:25;;;;;;;3.50;1.90;;;;;;;2.39;56.25;100458.88;346466;28;1050;-73
2023/04/04 00:20:37;;;;;;;2.60;1.77;;;;;;;2.26;55.59;100468.94;346468;28;1149;-73
2023/04/04 00:20:50;;;;;;;2.08;1.55;;;;;;;2.19;56.02;100460.28;346330;28;1133;-73
2023/04/04 00:21:02;;;;;;;2.20;1.50;;;;;;;2.18;56.24;100461.13;345229;28;1427;-73
2023/04/04 00:21:14;;;;;;;3.10;1.60;;;;;;;2.19;55.95;100460.28;347036;28;1089;-73
2023/04/04 00:21:26;;;;;;;3.65;1.70;;;;;;;2.13;56.04;100460.19;347016;28;2218;-73
2023/04/04 00:21:38;;;;;;;3.83;1.90;;;;;;;2.14;56.26;100461.94;347434;28;1103;-73
2023/04/04 00:21:53;;;;;;;3.85;2.00;;;;;;;2.14;56.42;100461.94;347328;28;1323;-73
2023/04/04 00:22:07;;;;;;;3.22;1.88;;;;;;;2.19;56.28;100465.41;347258;28;1047;-73
2023/04/04 00:22:19;;;;;;;2.45;1.67;;;;;;;2.10;57.13;100465.28;347055;28;1084;-73
2023/04/04 00:22:31;;;;;;;2.40;1.70;;;;;;;2.10;56.38;100460.16;346389;28;1153;-73
2023/04/04 00:22:43;;;;;;;3.13;1.63;;;;;;;2.07;57.43;100462.66;345176;28;1270;-73
2023/04/04 00:22:56;;;;;;;4.00;1.70;;;;;;;2.12;57.05;100461.06;344355;28;1213;-73
2023/04/04 00:23:11;;;;;;;5.05;1.70;;;;;;;2.07;57.44;100455.84;344596;28;1690;-73
2023/04/04 00:23:24;;;;;;;4.47;1.88;;;;;;;2.10;57.31;100455.91;344619;28;1105;-73
2023/04/04 00:23:35;;;;;;;3.80;1.92;;;;;;;2.09;57.59;100458.44;344120;28;1709;-73
2023/04/04 00:23:47;;;;;;;3.17;1.75;;;;;;;2.13;57.35;100460.19;342509;28;1227;-73
2023/04/04 00:23:59;;;;;;;3.17;1.70;;;;;;;2.14;57.29;100457.66;343320;28;1097;-73
2023/04/04 00:24:11;;;;;;;2.80;1.60;;;;;;;2.18;57.50;100453.44;343851;28;730;-73
2023/04/04 00:24:23;;;;;;;3.45;1.70;;;;;;;2.10;57.28;100460.16;342863;28;1366;-73
2023/04/04 00:24:36;;;;;;;3.47;1.70;;;;;;;2.03;57.20;100453.22;343493;28;1653;-73
2023/04/04 00:24:48;;;;;;;3.03;1.70;;;;;;;1.98;56.68;100456.56;344240;28;1296;-74
2023/04/04 00:25:00;;;;;;;2.67;1.83;;;;;;;1.99;56.70;100457.41;345367;28;974;-73
2023/04/04 00:25:13;;;;;;;3.58;1.88;;;;;;;2.03;57.40;100458.34;345032;28;1260;-74
2023/04/04 00:25:25;;;;;;;5.97;1.90;;;;;;;2.07;56.76;100458.41;345014;28;2156;-73
2023/04/04 00:25:37;;;;;;;5.60;1.80;;;;;;;2.09;57.10;100455.88;345477;28;1273;-73
2023/04/04 00:25:52;;;;;;;3.40;1.83;;;;;;;2.13;57.34;100455.06;346016;28;1258;-73
2023/04/04 00:26:05;;;;;;;3.00;1.77;;;;;;;2.11;57.60;100452.50;347698;28;1201;-73
2023/04/04 00:26:17;;;;;;;2.70;1.75;;;;;;;2.15;57.37;100461.09;347849;28;1031;-73
2023/04/04 00:26:29;;;;;;;2.92;1.75;;;;;;;2.18;57.45;100454.31;345687;28;1547;-74
2023/04/04 00:26:43;;;;;;;2.45;1.60;;;;;;;2.22;57.06;100457.78;345008;28;1015;-73
2023/04/04 00:26:55;;;;;;;2.22;1.60;;;;;;;2.23;56.94;100456.91;345429;28;1783;-73
2023/04/04 00:27:07;;;;;;;2.80;1.60;;;;;;;2.21;57.02;100461.16;345087;28;2210;-73
2023/04/04 00:27:19;;;;;;;2.63;1.65;;;;;;;2.23;56.83;100454.34;346081;28;1469;-73
2023/04/04 00:27:31;;;;;;;2.65;1.70;;;;;;;2.22;56.42;100460.34;346274;28;1356;-73
2023/04/04 00:27:43;;;;;;;3.03;1.70;;;;;;;2.23;56.58;100456.06;346389;28;1127;-73
2023/04/04 00:27:59;;;;;;;3.25;1.73;;;;;;;2.24;56.74;100457.81;344791;28;1743;-73
2023/04/04 00:28:11;;;;;;;2.63;1.67;;;;;;;2.26;56.73;100451.84;345057;28;1185;-73
2023/04/04 00:28:23;;;;;;;4.65;1.77;;;;;;;2.16;57.33;100455.97;345020;28;1063;-73
2023/04/04 00:28:35;;;;;;;4.95;1.80;;;;;;;2.18;57.44;100456.88;345946;28;1067;-73
2023/04/04 00:28:47;;;;;;;4.60;1.73;;;;;;;2.20;57.59;100447.50;345633;28;1981;-73
2023/04/04 00:28:59;;;;;;;2.90;1.70;;;;;;;2.23;57.06;100451.78;346395;28;1081;-73
2023/04/04 00:29:11;;;;;;;2.72;1.67;;;;;;;2.23;57.38;100456.91;345936;28;1743;-73
2023/04/04 00:29:23;;;;;;;2.80;1.60;;;;;;;2.26;57.61;100451.84;346022;28;1092;-73
2023/04/04 00:29:36;;;;;;;2.85;1.75;;;;;;;2.21;57.20;100443.22;346285;28;1220;-73
2023/04/04 00:29:48;;;;;;;2.75;1.90;;;;;;;2.23;57.01;100456.91;346285;28;1331;-73
2023/04/04 00:30:00;;;;;;;3.60;2.05;;;;;;;2.13;56.61;100455.06;346287;28;1099;-73
2023/04/04 00:30:12;;;;;;;3.25;1.80;;;;;;;2.08;56.56;100452.44;346173;28;1061;-73
2023/04/04 00:30:25;;;;;;;3.05;1.60;;;;;;;2.11;57.33;100456.75;346430;28;1331;-73
2023/04/04 00:30:37;;;;;;;3.10;1.60;;;;;;;2.13;57.06;100455.97;346279;28;1149;-73
2023/04/04 00:30:49;;;;;;;4.55;1.67;;;;;;;2.17;57.17;100451.72;343910;28;1772;-73
2023/04/04 00:31:01;;;;;;;4.80;1.90;;;;;;;2.20;56.92;100457.75;346071;28;1216;-73
2023/04/04 00:31:13;;;;;;;4.40;1.90;;;;;;;2.23;56.78;100451.78;346398;28;1063;-73
2023/04/04 00:31:26;;;;;;;4.47;1.80;;;;;;;2.26;56.48;100456.97;346555;28;1257;-73
2023/04/04 00:31:38;;;;;;;4.07;1.65;;;;;;;2.27;56.36;100443.28;346956;28;751;-73
2023/04/04 00:31:50;;;;;;;3.22;1.60;;;;;;;2.25;57.00;100450.09;345692;28;1638;-73
2023/04/04 00:32:02;;;;;;;2.70;1.60;;;;;;;2.14;56.54;100451.69;345675;28;1231;-73
2023/04/04 00:32:15;;;;;;;2.95;1.77;;;;;;;2.18;56.87;100461.13;346582;28;1017;-73
2023/04/04 00:32:27;;;;;;;2.75;1.80;;;;;;;2.18;56.48;100458.56;346420;28;1013;-73
2023/04/04 00:32:39;;;;;;;3.28;1.95;;;;;;;2.16;56.37;100455.97;346301;28;1031;-73
2023/04/04 00:32:51;;;;;;;3.25;2.08;;;;;;;2.16;56.45;100455.13;344868;28;1864;-73
2023/04/04 00:33:05;;;;;;;5.68;2.05;;;;;;;2.11;56.61;100454.19;345996;28;1397;-73
2023/04/04 00:33:17;;;;;;;6.03;1.75;;;;;;;2.10;56.79;100450.75;344892;28;1127;-73
2023/04/04 00:33:29;;;;;;;4.30;1.60;;;;;;;2.09;57.45;100451.59;344669;28;1070;-73
2023/04/04 00:33:41;;;;;;;2.30;1.73;;;;;;;2.06;57.21;100449.00;344923;28;1084;-73
2023/04/04 00:33:53;;;;;;;3.00;1.85;;;;;;;2.06;56.79;100451.56;344872;28;1732;-73
2023/04/04 00:34:05;;;;;;;3.72;1.83;;;;;;;2.04;57.39;100450.69;345275;28;1026;-73
2023/04/04 00:34:17;;;;;;;4.18;1.80;;;;;;;2.04;58.02;100452.38;345615;28;1733;-73
2023/04/04 00:34:30;;;;;;;3.55;1.80;;;;;;;2.01;57.74;100450.63;345062;28;1735;-73
2023/04/04 00:34:42;;;;;;;4.25;1.90;;;;;;;1.98;57.32;100451.44;345079;28;1079;-73
2023/04/04 00:34:56;;;;;;;3.33;1.70;;;;;;;2.00;57.75;100454.88;343667;28;1020;-74
2023/04/04 00:35:09;;;;;;;2.38;1.60;;;;;;;2.04;57.90;100449.81;344372;28;1516;-73
2023/04/04 00:35:21;;;;;;;2.78;1.55;;;;;;;2.03;57.49;100450.66;343460;28;1125;-73
2023/04/04 00:35:33;;;;;;;4.15;1.60;;;;;;;2.04;57.61;100450.69;344065;28;1068;-73
2023/04/04 00:35:47;;;;;;;3.75;1.60;;;;;;;1.96;58.14;100452.25;344963;28;1286;-73
2023/04/04 00:35:59;;;;;;;3.42;1.77;;;;;;;1.97;58.43;100454.84;344757;28;1245;-73
2023/04/04 00:36:11;;;;;;;3.42;1.80;;;;;;;1.99;58.55;100452.28;344633;28;1841;-73
2023/04/04 00:36:23;;;;;;;3.53;1.70;;;;;;;2.03;58.19;100453.22;346555;28;1752;-73
2023/04/04 00:36:35;;;;;;;2.95;1.65;;;;;;;2.06;58.22;100458.41;347231;28;1296;-73
2023/04/04 00:36:48;;;;;;;2.20;1.50;;;;;;;2.10;57.89;100457.59;347406;28;1586;-73
2023/04/04 00:37:00;;;;;;;2.95;1.75;;;;;;;2.12;57.44;100458.50;346411;28;1785;-73
2023/04/04 00:37:12;;;;;;;3.83;2.10;;;;;;;2.12;57.82;100454.22;344913;28;1149;-73
2023/04/04 00:37:24;;;;;;;3.28;2.00;;;;;;;2.17;57.23;100451.72;344917;28;1202;-73
2023/04/04 00:37:37;;;;;;;2.80;1.48;;;;;;;2.06;57.04;100458.41;345054;28;1073;-73
2023/04/04 00:37:49;;;;;;;4.40;1.70;;;;;;;2.07;57.60;100454.97;344871;28;1575;-73
2023/04/04 00:38:01;;;;;;;3.42;1.77;;;;;;;2.06;57.50;100453.28;345567;28;1659;-73
2023/04/04 00:38:13;;;;;;;3.43;1.70;;;;;;;2.06;57.71;100453.28;345912;28;1721;-73
2023/04/04 00:38:25;;;;;;;3.72;1.70;;;;;;;2.06;57.37;100449.00;345522;28;1624;-73
2023/04/04 00:38:37;;;;;;;4.22;1.70;;;;;;;2.07;57.46;100449.84;345224;28;1317;-73
2023/04/04 00:38:49;;;;;;;2.72;1.55;;;;;;;2.11;57.87;100449.06;345683;28;1342;-73
2023/04/04 00:39:01;;;;;;;2.85;1.52;;;;;;;2.13;57.08;100449.94;346050;28;1178;-73
2023/04/04 00:39:13;;;;;;;3.95;1.63;;;;;;;2.02;57.10;100446.38;346100;28;1331;-73
2023/04/04 00:39:26;;;;;;;5.82;1.83;;;;;;;1.96;57.02;100450.56;346888;28;1664;-73
2023/04/04 00:39:38;;;;;;;5.78;1.90;;;;;;;1.93;57.40;100447.97;347702;28;1203;-73
2023/04/04 00:39:50;;;;;;;4.20;1.80;;;;;;;1.95;57.22;100456.53;347522;28;1258;-73
2023/04/04 00:40:03;;;;;;;2.75;1.60;;;;;;;1.83;56.88;100451.19;346325;28;1182;-73
2023/04/04 00:40:15;;;;;;;2.28;1.67;;;;;;;1.77;57.26;100449.41;347470;28;1135;-73
2023/04/04 00:40:27;;;;;;;2.30;1.80;;;;;;;1.79;57.91;100446.84;346540;28;1934;-74
2023/04/04 00:40:41;;;;;;;2.28;1.70;;;;;;;1.73;57.44;100449.31;347150;28;1499;-73
2023/04/04 00:40:55;;;;;;;3.13;1.55;;;;;;;1.73;57.67;100450.22;346784;28;1906;-73
2023/04/04 00:41:07;;;;;;;3.80;1.70;;;;;;;1.78;57.50;100447.72;345071;28;1166;-73
2023/04/04 00:41:20;;;;;;;3.80;2.00;;;;;;;1.80;57.35;100446.03;344490;28;1341;-73
2023/04/04 00:41:35;;;;;;;4.07;2.00;;;;;;;1.78;57.67;100447.72;344240;28;1631;-73
2023/04/04 00:41:47;;;;;;;4.47;1.90;;;;;;;1.82;57.50;100449.47;345299;28;1276;-73
2023/04/04 00:42:00;;;;;;;3.85;1.80;;;;;;;1.85;58.26;100449.53;345105;28;1195;-73
2023/04/04 00:42:12;;;;;;;3.13;1.80;;;;;;;1.86;58.74;100450.41;344274;28;1197;-74
2023/04/04 00:42:24;;;;;;;3.30;1.80;;;;;;;1.90;58.47;100452.16;343653;28;1072;-73
2023/04/04 00:42:37;;;;;;;3.42;1.80;;;;;;;1.93;58.05;100450.53;343674;28;1059;-73
2023/04/04 00:42:49;;;;;;;3.70;1.83;;;;;;;1.94;57.97;100449.66;343280;28;1918;-74
2023/04/04 00:43:01;;;;;;;4.43;1.88;;;;;;;1.96;58.41;100449.69;342565;28;1108;-74
2023/04/04 00:43:15;;;;;;;6.15;1.92;;;;;;;1.99;57.80;100453.19;344024;28;1871;-75
2023/04/04 00:43:27;;;;;;;5.88;1.90;;;;;;;2.03;57.41;100448.09;344720;28;1023;-73
2023/04/04 00:43:39;;;;;;;3.45;1.70;;;;;;;2.04;58.06;100454.94;344120;28;1939;-73
2023/04/04 00:43:52;;;;;;;4.43;1.80;;;;;;;2.06;58.25;100445.56;343242;28;1617;-73
2023/04/04 00:44:05;;;;;;;5.40;2.00;;;;;;;1.89;58.02;100446.19;343605;28;1287;-73
2023/04/04 00:44:17;;;;;;;3.60;1.80;;;;;;;1.96;58.45;100450.56;344863;28;1278;-72
2023/04/04 00:44:31;;;;;;;4.35;1.95;;;;;;;1.98;58.01;100456.56;345108;28;1179;-73
2023/04/04 00:44:43;;;;;;;4.00;2.00;;;;;;;1.98;57.45;100445.47;345107;28;1203;-73
2023/04/04 00:44:55;;;;;;;4.10;1.77;;;;;;;1.95;57.71;100446.28;344400;28;1613;-73
2023/04/04 00:45:07;;;;;;;4.07;1.60;;;;;;;1.90;57.79;100450.47;345805;28;1159;-73
2023/04/04 00:45:19;;;;;;;3.78;1.70;;;;;;;1.90;57.88;100447.03;345788;28;1816;-73
2023/04/04 00:45:32;;;;;;;4.05;1.80;;;;;;;1.81;57.29;100445.19;346025;28;1195;-73
2023/04/04 00:45:45;;;;;;;4.82;1.70;;;;;;;1.71;57.62;100444.19;344808;28;1705;-73
2023/04/04 00:45:57;;;;;;;4.63;1.80;;;;;;;1.65;57.54;100453.47;345411;28;1641;-73
2023/04/04 00:46:13;;;;;;;3.38;1.85;;;;;;;1.67;57.40;100446.66;345333;28;1287;-73
2023/04/04 00:46:28;;;;;;;3.33;1.77;;;;;;;1.62;57.43;100451.72;346346;28;995;-73
2023/04/04 00:46:40;;;;;;;3.38;1.90;;;;;;;1.66;57.63;100447.50;346331;28;803;-73
2023/04/04 00:46:52;;;;;;;2.63;1.77;;;;;;;1.68;57.42;100439.00;345942;28;1324;-73
2023/04/04 00:47:04;;;;;;;2.85;1.90;;;;;;;1.66;57.80;100444.94;344239;28;1741;-73
2023/04/04 00:47:16;;;;;;;2.92;1.83;;;;;;;1.70;58.53;100447.59;343684;28;2170;-73
2023/04/04 00:47:32;;;;;;;3.10;1.77;;;;;;;1.70;57.96;100439.03;344997;28;1103;-73
2023/04/04 00:47:45;;;;;;;4.03;1.83;;;;;;;1.72;58.23;100439.94;344845;28;1342;-74
2023/04/04 00:48:01;;;;;;;4.20;1.80;;;;;;;1.75;58.32;100447.66;344281;28;1587;-73
2023/04/04 00:48:14;;;;;;;3.00;1.70;;;;;;;1.78;58.22;100438.31;344359;28;1733;-73
2023/04/04 00:48:26;;;;;;;3.72;1.75;;;;;;;1.78;58.25;100442.59;344188;28;1051;-73
2023/04/04 00:48:40;;;;;;;4.07;1.70;;;;;;;1.73;58.48;100433.94;343578;28;1225;-73
2023/04/04 00:48:53;;;;;;;4.10;1.85;;;;;;;1.75;59.32;100437.41;346178;28;1324;-73
2023/04/04 00:49:05;;;;;;;3.03;1.80;;;;;;;1.77;58.95;100440.84;346074;28;1055;-73
2023/04/04 00:49:17;;;;;;;3.05;1.73;;;;;;;1.78;59.06;100437.47;345474;28;1824;-73
2023/04/04 00:49:33;;;;;;;3.15;1.80;;;;;;;1.79;59.02;100440.06;345966;28;1692;-73
2023/04/04 00:49:45;;;;;;;3.40;1.92;;;;;;;1.83;59.22;100440.94;345545;28;1694;-72
2023/04/04 00:49:57;;;;;;;3.45;2.00;;;;;;;1.88;59.00;100439.31;345583;28;1745;-73
2023/04/04 00:50:09;;;;;;;4.15;1.90;;;;;;;1.64;58.05;100444.91;346485;28;1122;-73
2023/04/04 00:50:21;;;;;;;5.25;1.85;;;;;;;1.66;58.57;100438.13;346034;28;1698;-74
2023/04/04 00:50:33;;;;;;;5.50;1.90;;;;;;;1.65;58.41;100443.22;345282;28;1879;-73
2023/04/04 00:50:46;;;;;;;4.95;1.90;;;;;;;1.64;58.74;100444.06;346368;28;1468;-72
2023/04/04 00:50:58;;;;;;;4.60;1.83;;;;;;;1.62;58.52;100440.63;346070;28;1834;-73
2023/04/04 00:51:10;;;;;;;3.28;1.70;;;;;;;1.66;58.01;100442.41;346427;28;1050;-73
2023/04/04 00:51:22;;;;;;;3.40;1.80;;;;;;;1.66;58.22;100437.25;346127;28;1251;-73
2023/04/04 00:51:35;;;;;;;3.75;1.90;;;;;;;1.70;58.34;100439.03;345378;28;1745;-73
2023/04/04 00:51:48;;;;;;;3.75;1.67;;;;;;;1.73;58.77;100444.19;344838;28;1725;-73
2023/04/04 00:52:00;;;;;;;3.45;1.60;;;;;;;1.71;58.58;100440.75;344847;28;1151;-73
2023/04/04 00:52:11;;;;;;;3.25;1.70;;;;;;;1.72;58.89;100437.38;345017;28;1315;-73
2023/04/04 00:52:24;;;;;;;3.73;1.87;;;;;;;1.74;58.66;100436.53;344998;28;1130;-73
2023/04/04 00:52:36;;;;;;;4.57;1.80;;;;;;;1.79;58.25;100434.03;344688;28;2043;-73
2023/04/04 00:52:48;;;;;;;4.25;1.80;;;;;;;1.74;58.76;100435.69;345061;28;1390;-73
2023/04/04 00:53:00;;;;;;;3.33;1.80;;;;;;;1.75;59.00;100434.81;344858;28;1261;-73
2023/04/04 00:53:12;;;;;;;3.08;1.65;;;;;;;1.78;59.32;100433.19;344952;28;1146;-73
2023/04/04 00:53:25;;;;;;;3.58;1.70;;;;;;;1.77;58.75;100433.16;344883;28;1113;-73
2023/04/04 00:53:38;;;;;;;4.38;1.80;;;;;;;1.74;58.05;100435.69;344962;28;1715;-73
2023/04/04 00:53:51;;;;;;;4.20;1.90;;;;;;;1.69;58.44;100437.28;346278;28;1339;-73
2023/04/04 00:54:03;;;;;;;3.03;1.83;;;;;;;1.73;59.00;100433.94;346373;28;1190;-73
2023/04/04 00:54:15;;;;;;;4.72;1.90;;;;;;;1.75;58.76;100437.41;346786;28;1306;-73
2023/04/04 00:54:29;;;;;;;4.75;1.90;;;;;;;1.71;58.38;100433.06;346860;28;1062;-73
2023/04/04 00:54:41;;;;;;;3.38;1.90;;;;;;;1.68;58.35;100433.03;346533;28;1133;-73
2023/04/04 00:54:55;;;;;;;3.55;1.70;;;;;;;1.69;58.83;100440.75;346283;28;1325;-74
2023/04/04 00:55:07;;;;;;;3.80;1.50;;;;;;;1.70;59.31;100439.03;346640;28;1160;-73
2023/04/04 00:55:19;;;;;;;4.50;1.60;;;;;;;1.73;58.82;100439.06;346045;28;1937;-74
2023/04/04 00:55:31;;;;;;;3.20;1.60;;;;;;;1.70;58.40;100439.91;346635;28;1088;-73
2023/04/04 00:55:43;;;;;;;3.70;1.70;;;;;;;1.71;58.56;100431.38;346247;28;1313;-75
2023/04/04 00:55:55;;;;;;;3.72;1.75;;;;;;;1.60;57.89;100438.03;345038;28;1688;-75
2023/04/04 00:56:08;;;;;;;3.75;1.90;;;;;;;1.57;58.29;100437.97;345972;28;1284;-73
2023/04/04 00:56:21;;;;;;;3.25;1.80;;;;;;;1.63;58.76;100432.06;346119;28;1058;-73
2023/04/04 00:56:36;;;;;;;5.65;2.17;;;;;;;1.61;59.00;100437.19;346200;28;1185;-73
2023/04/04 00:56:53;;;;;;;5.10;2.20;;;;;;;1.53;58.37;100437.06;346063;28;1271;-74
2023/04/04 00:57:07;;;;;;;2.15;1.55;;;;;;;1.58;59.01;100439.69;346382;28;1157;-73
2023/04/04 00:57:19;;;;;;;2.60;1.70;;;;;;;1.63;58.57;100432.06;344772;28;1645;-75
2023/04/04 00:57:33;;;;;;;2.58;1.80;;;;;;;1.62;58.21;100436.34;344089;28;1673;-75
2023/04/04 00:57:45;;;;;;;3.33;1.70;;;;;;;1.63;58.94;100437.19;344750;28;1787;-73
2023/04/04 00:57:58;;;;;;;3.00;1.70;;;;;;;1.63;58.82;100432.97;346319;28;1656;-74
2023/04/04 00:58:11;;;;;;;2.42;1.63;;;;;;;1.63;58.68;100437.19;346656;28;1264;-74
2023/04/04 00:58:25;;;;;;;2.33;1.60;;;;;;;1.61;59.18;100429.50;346362;28;1073;-73
2023/04/04 00:58:37;;;;;;;3.38;1.75;;;;;;;1.60;58.39;100433.75;345356;28;1697;-73
2023/04/04 00:58:49;;;;;;;3.88;1.90;;;;;;;1.65;59.14;100430.41;346199;28;1426;-73
2023/04/04 00:59:01;;;;;;;3.22;1.80;;;;;;;1.69;58.77;100432.16;346344;28;1152;-73
2023/04/04 00:59:14;;;;;;;3.45;1.80;;;;;;;1.68;58.99;100430.47;346044;28;1904;-73
2023/04/04 00:59:27;;;;;;;2.90;1.63;;;;;;;1.65;58.51;100430.41;344631;28;2904;-72
2023/04/04 00:59:40;;;;;;;2.83;1.60;;;;;;;1.68;58.77;100425.34;345196;28;3195;-73
2023/04/04 00:59:52;;;;;;;2.78;1.60;;;;;;;1.70;59.15;100433.91;346446;28;1376;-72
2023/04/04 01:00:06;;;;;;;2.45;1.60;;;;;;;1.68;58.97;100430.47;346283;28;1064;-73
2023/04/04 01:00:18;;;;;;;2.72;1.52;;;;;;;1.69;58.91;100432.16;345573;28;1647;-73
2023/04/04 01:00:35;;;;;;;3.70;1.60;;;;;;;1.74;58.98;100430.56;346335;28;1752;-73